Time;durP1;ratioP1;P1;durP2;ratioP2;P2;SDS_P1;SDS_P2;PMS_P1;PMS_P2;Temp;Humidity;BMP_temperature;BMP_pressure;BME280_temperature;BME280_humidity;BME280_pressure;Samples;Min_cycle;Max_cycle;Signal;HPM_P1;HPM_P2
2022/08/03 00:02:17;;;;;;;5.13;2.50;;;;;;;23.77;46.24;99251.19;5073037;28;20025;-88
2022/08/03 00:04:43;;;;;;;5.15;2.83;;;;;;;23.26;46.76;99211.94;5075007;28;20027;-88
2022/08/03 00:07:08;;;;;;;12.95;3.00;;;;;;;22.75;48.55;99239.47;5076425;28;20020;-88
2022/08/03 00:09:33;;;;;;;10.35;3.63;;;;;;;22.62;48.55;99207.84;5068933;28;20166;-88
2022/08/03 00:11:59;;;;;;;12.75;3.00;;;;;;;22.75;48.35;99245.16;5070042;28;20047;-88
2022/08/03 00:14:24;;;;;;;7.85;3.05;;;;;;;22.60;48.79;99247.34;5076501;28;20410;-88
2022/08/03 00:16:50;;;;;;;16.60;3.58;;;;;;;22.93;47.95;99244.97;5076241;28;20035;-88
2022/08/03 00:19:15;;;;;;;5.60;2.63;;;;;;;22.93;47.47;99216.44;5076177;28;20020;-88
2022/08/03 00:21:41;;;;;;;7.57;3.55;;;;;;;22.99;47.82;99226.97;5076116;28;20049;-88
2022/08/03 00:24:06;;;;;;;4.00;2.72;;;;;;;23.10;47.67;99243.94;5076185;28;20028;-89
2022/08/03 00:26:32;;;;;;;5.32;3.20;;;;;;;22.81;47.99;99247.13;5073974;28;20031;-88
2022/08/03 00:28:58;;;;;;;3.25;2.95;;;;;;;23.10;47.35;99229.66;5075989;28;20043;-88
2022/08/03 00:31:23;;;;;;;5.32;2.40;;;;;;;23.48;46.67;99250.78;5076106;28;20517;-88
2022/08/03 00:33:49;;;;;;;7.97;2.30;;;;;;;23.52;46.49;99245.84;5075734;28;20031;-88
2022/08/03 00:36:14;;;;;;;5.25;3.17;;;;;;;22.58;48.95;99237.19;5075841;28;20020;-89
2022/08/03 00:38:40;;;;;;;3.53;2.50;;;;;;;21.74;50.99;99217.16;5075727;28;20047;-88
2022/08/03 00:41:05;;;;;;;3.78;3.17;;;;;;;21.81;50.89;99243.94;5074992;28;20035;-88
2022/08/03 00:43:31;;;;;;;4.95;3.33;;;;;;;21.79;50.98;99224.44;5075442;28;20404;-88
2022/08/03 00:45:56;;;;;;;3.50;3.00;;;;;;;21.61;51.38;99230.22;5075884;28;20028;-88
2022/08/03 00:48:22;;;;;;;4.40;3.00;;;;;;;21.60;51.45;99235.09;5075733;28;20020;-88
2022/08/03 00:50:48;;;;;;;5.03;2.35;;;;;;;21.73;50.88;99223.25;5075721;28;20077;-88
2022/08/03 00:53:14;;;;;;;5.70;2.97;;;;;;;21.82;51.41;99237.84;5075483;28;20111;-88
2022/08/03 00:55:41;;;;;;;2.75;2.55;;;;;;;22.04;50.41;99231.97;5074892;28;20379;-88
2022/08/03 00:58:09;;;;;;;9.25;3.00;;;;;;;22.25;49.87;99222.41;5075389;28;20028;-88
2022/08/03 01:00:39;;;;;;;12.98;3.22;;;;;;;22.33;49.42;99219.53;5075451;28;20118;-88
2022/08/03 01:03:07;;;;;;;6.18;2.75;;;;;;;22.50;48.95;99232.78;5075460;28;20392;-88
2022/08/03 01:05:57;;;;;;;5.65;3.08;;;;;;;22.36;49.35;99235.75;5075079;28;20550;-88
2022/08/03 01:08:46;;;;;;;;;;;;;;;21.93;50.40;99236.94;5061821;28;20036;-88
2022/08/03 01:11:43;;;;;;;6.68;2.78;;;;;;;21.55;51.53;99240.41;5071356;28;19912;-88
2022/08/03 01:14:14;;;;;;;4.95;2.78;;;;;;;21.60;51.64;99228.63;5046232;28;20126;-88
2022/08/03 01:17:00;;;;;;;3.67;3.22;;;;;;;21.28;52.21;99238.13;5075428;28;20028;-88
2022/08/03 01:20:04;;;;;;;3.03;2.75;;;;;;;21.03;52.80;99248.38;5073395;28;20767;-88
2022/08/03 01:22:48;;;;;;;3.33;3.13;;;;;;;21.06;52.82;99252.44;4975468;28;20100;-88
2022/08/03 01:25:42;;;;;;;3.25;2.95;;;;;;;21.44;51.75;99249.03;4974418;28;20529;-88
2022/08/03 01:28:37;;;;;;;2.78;2.58;;;;;;;22.02;50.42;99246.63;5029646;28;20089;-88
2022/08/03 01:31:07;;;;;;;7.28;2.75;;;;;;;21.55;51.02;99235.56;5074191;28;20047;-88
2022/08/03 01:33:48;;;;;;;3.78;3.38;;;;;;;21.19;52.04;99230.06;5074186;28;20038;-88
2022/08/03 01:36:21;;;;;;;5.85;3.17;;;;;;;21.01;53.11;99230.16;5074733;28;20089;-88
2022/08/03 01:39:10;;;;;;;5.93;3.08;;;;;;;20.74;53.88;99233.44;5074613;28;20608;-89
2022/08/03 01:41:48;;;;;;;3.75;3.13;;;;;;;20.92;53.86;99244.78;5074476;28;20119;-88
2022/08/03 01:44:14;;;;;;;3.78;2.88;;;;;;;20.92;53.89;99243.97;5074395;28;20106;-88
2022/08/03 01:46:41;;;;;;;11.40;3.10;;;;;;;21.07;53.42;99233.38;5074070;28;20127;-88
2022/08/03 01:49:10;;;;;;;3.35;3.05;;;;;;;21.12;53.37;99247.16;5072655;28;20101;-88
2022/08/03 01:51:41;;;;;;;9.52;2.85;;;;;;;21.01;53.57;99244.34;5074494;28;20066;-89
2022/08/03 01:54:10;;;;;;;10.25;3.35;;;;;;;20.83;53.86;99236.69;5074357;28;20485;-88
2022/08/03 01:56:38;;;;;;;11.40;3.05;;;;;;;20.72;54.19;99247.25;5074584;28;20035;-88
2022/08/03 01:59:06;;;;;;;4.07;3.38;;;;;;;20.17;55.14;99215.31;5074085;28;20044;-88
2022/08/03 02:01:33;;;;;;;4.47;2.90;;;;;;;20.48;54.68;99209.97;5074197;28;20039;-88
2022/08/03 02:03:59;;;;;;;4.53;3.17;;;;;;;20.87;53.88;99220.44;5073396;28;20068;-88
2022/08/03 02:06:26;;;;;;;3.55;3.13;;;;;;;21.26;53.15;99241.38;5074251;28;20028;-88
2022/08/03 02:08:54;;;;;;;6.50;2.85;;;;;;;21.11;52.72;99240.63;5092221;28;20028;-89
2022/08/03 02:11:20;;;;;;;4.97;2.95;;;;;;;20.79;53.01;99221.66;5074178;28;20028;-88
2022/08/03 02:13:47;;;;;;;5.20;3.40;;;;;;;21.09;52.86;99251.63;5074138;28;20040;-88
2022/08/03 02:16:13;;;;;;;3.78;3.00;;;;;;;21.25;52.39;99256.84;5073885;28;20558;-88
2022/08/03 02:18:41;;;;;;;3.95;2.67;;;;;;;21.23;52.09;99249.94;5073419;28;20193;-88
2022/08/03 02:21:09;;;;;;;2.78;2.58;;;;;;;21.12;52.57;99250.81;5074034;28;20020;-88
2022/08/03 02:23:36;;;;;;;5.53;2.75;;;;;;;20.68;53.72;99237.94;5073767;28;20111;-88
2022/08/03 02:26:05;;;;;;;5.55;3.10;;;;;;;20.33;55.05;99252.59;5074223;28;20036;-88
2022/08/03 02:28:34;;;;;;;4.80;2.67;;;;;;;20.33;54.26;99209.19;5074177;28;20032;-88
2022/08/03 02:31:05;;;;;;;7.75;4.82;;;;;;;20.75;53.84;99252.09;5073679;28;20034;-87
2022/08/03 02:33:37;;;;;;;6.10;3.38;;;;;;;20.51;54.26;99243.22;5073655;28;20031;-88
2022/08/03 02:36:04;;;;;;;6.68;2.90;;;;;;;20.15;55.01;99231.91;5073963;28;20078;-88
2022/08/03 02:38:35;;;;;;;5.47;2.97;;;;;;;20.20;55.48;99254.25;5073914;28;20505;-88
2022/08/03 02:41:06;;;;;;;4.05;3.13;;;;;;;20.66;54.83;99265.94;5073949;28;20035;-88
2022/08/03 02:43:35;;;;;;;5.43;2.67;;;;;;;20.39;54.88;99258.69;5073348;28;20418;-88
2022/08/03 02:46:00;;;;;;;3.72;3.28;;;;;;;20.40;55.32;99260.31;5073517;28;20040;-88
2022/08/03 02:48:29;;;;;;;7.88;3.72;;;;;;;20.36;55.21;99242.47;5073399;28;20038;-87
2022/08/03 02:50:57;;;;;;;8.90;3.38;;;;;;;20.15;55.55;99252.63;5073848;28;20024;-88
2022/08/03 02:53:25;;;;;;;5.35;3.40;;;;;;;20.06;56.12;99243.69;5073780;28;20028;-88
2022/08/03 02:55:52;;;;;;;6.13;3.53;;;;;;;19.86;56.30;99246.09;5073612;28;20052;-88
2022/08/03 02:58:22;;;;;;;7.63;3.15;;;;;;;20.05;56.31;99257.09;5077753;28;20028;-89
2022/08/03 03:00:50;;;;;;;;;;;;;;;19.78;56.88;99268.75;5078023;28;20035;-88
2022/08/03 03:03:17;;;;;;;5.88;3.38;;;;;;;19.46;57.88;99275.19;5076929;28;19911;-88
2022/08/03 03:05:43;;;;;;;11.05;3.47;;;;;;;19.76;56.38;99237.16;5077420;28;20028;-88
2022/08/03 03:08:13;;;;;;;6.13;3.60;;;;;;;20.39;55.25;99275.72;5077638;28;20039;-88
2022/08/03 03:10:39;;;;;;;6.18;3.50;;;;;;;20.21;55.59;99272.88;5077724;28;20114;-88
2022/08/03 03:13:06;;;;;;;5.72;3.78;;;;;;;20.14;55.58;99275.72;5077758;28;20043;-88
2022/08/03 03:15:34;;;;;;;5.00;3.67;;;;;;;20.07;56.29;99276.53;5075159;28;20143;-88
2022/08/03 03:18:00;;;;;;;8.35;3.20;;;;;;;20.27;55.60;99279.81;5074612;28;20036;-89
2022/08/03 03:20:28;;;;;;;4.97;3.50;;;;;;;20.25;55.17;99259.50;5076339;28;20099;-88
2022/08/03 03:22:55;;;;;;;7.32;3.40;;;;;;;19.99;56.33;99281.41;5076259;28;20387;-89
2022/08/03 03:25:20;;;;;;;4.07;3.17;;;;;;;19.75;56.79;99254.59;5095237;28;20119;-88
2022/08/03 03:27:47;;;;;;;7.20;3.42;;;;;;;19.91;56.49;99252.16;5075836;28;20119;-88
2022/08/03 03:30:13;;;;;;;10.43;3.65;;;;;;;20.22;55.77;99277.34;5076958;28;20143;-88
2022/08/03 03:32:39;;;;;;;6.43;3.47;;;;;;;20.26;55.78;99275.31;5075535;28;20096;-88
2022/08/03 03:35:06;;;;;;;23.02;4.63;;;;;;;20.18;56.16;99276.56;5077263;28;20402;-89
2022/08/03 03:37:32;;;;;;;19.83;4.05;;;;;;;19.89;56.98;99276.47;5076796;28;20036;-87
2022/08/03 03:39:58;;;;;;;5.47;3.50;;;;;;;20.09;56.82;99281.81;5076687;28;20084;-87
2022/08/03 03:42:25;;;;;;;12.77;4.00;;;;;;;19.59;57.67;99277.66;5075723;28;20028;-88
2022/08/03 03:44:50;;;;;;;9.15;3.72;;;;;;;19.33;58.99;99297.41;5062413;28;20091;-88
2022/08/03 03:47:16;;;;;;;7.35;3.20;;;;;;;19.25;59.49;99300.63;5076148;28;20107;-88
2022/08/03 03:49:43;;;;;;;8.90;4.05;;;;;;;19.16;60.27;99298.97;5073650;28;20111;-88
2022/08/03 03:52:09;;;;;;;6.32;3.33;;;;;;;19.34;59.37;99301.09;5076703;28;20023;-87
2022/08/03 03:54:43;;;;;;;10.88;4.05;;;;;;;19.43;59.19;99312.88;5077201;28;20020;-92
2022/08/03 03:57:10;;;;;;;10.65;3.60;;;;;;;19.01;60.57;99312.28;5077772;28;20024;-92
2022/08/03 03:59:40;;;;;;;6.63;4.40;;;;;;;19.06;60.12;99311.88;5077533;28;20024;-93
2022/08/03 04:02:07;;;;;;;16.85;4.55;;;;;;;19.36;59.89;99324.19;5076664;28;20092;-93
2022/08/03 04:12:59;;;;;;;15.95;4.65;;;;;;;19.25;60.60;99334.66;5074418;28;20101;-91
2022/08/03 04:15:28;;;;;;;7.13;4.88;;;;;;;19.02;60.59;99319.56;5078882;28;20130;-92
2022/08/03 04:17:58;;;;;;;8.23;4.35;;;;;;;19.12;61.04;99328.50;5061550;28;20039;-92
2022/08/03 04:20:28;;;;;;;11.48;4.40;;;;;;;19.06;60.95;99305.41;5059525;28;20128;-89
2022/08/03 04:22:59;;;;;;;7.93;4.47;;;;;;;19.35;60.24;99333.91;5056928;28;20119;-93
2022/08/03 04:25:27;;;;;;;;;;;;;;;19.47;60.50;99344.88;5057191;28;20032;-94
2022/08/03 04:27:57;;;;;;;8.18;4.22;;;;;;;19.66;59.97;99342.91;5056845;28;19908;-94
2022/08/03 04:30:25;;;;;;;18.98;4.68;;;;;;;19.57;59.58;99316.97;5068941;28;20490;-93
2022/08/03 04:32:51;;;;;;;10.57;4.25;;;;;;;19.76;59.09;99319.44;5074978;28;20040;-93
2022/08/03 04:35:18;;;;;;;6.72;3.97;;;;;;;19.99;59.06;99343.84;5075831;28;20027;-94
2022/08/03 04:37:46;;;;;;;7.22;3.97;;;;;;;19.84;58.68;99330.81;5063882;28;20048;-93
2022/08/03 04:40:44;;;;;;;10.50;4.80;;;;;;;19.55;59.40;99337.22;5075051;28;20031;-94
2022/08/03 04:43:13;;;;;;;6.22;4.05;;;;;;;19.59;59.30;99345.75;5059078;28;20123;-93
2022/08/03 04:45:40;;;;;;;8.57;4.78;;;;;;;19.36;60.10;99346.88;5074024;28;20040;-93
2022/08/03 04:48:06;;;;;;;7.78;4.00;;;;;;;19.47;59.78;99342.03;5074990;28;20570;-93
2022/08/03 04:50:32;;;;;;;8.02;4.78;;;;;;;19.68;59.34;99345.34;5074716;28;20032;-93
2022/08/03 04:52:58;;;;;;;5.70;3.63;;;;;;;19.63;59.70;99340.88;5074675;28;20032;-93
2022/08/03 04:55:28;;;;;;;10.27;3.70;;;;;;;19.76;58.94;99336.47;5076261;28;20039;-93
2022/08/03 04:57:54;;;;;;;7.70;4.13;;;;;;;19.59;59.50;99342.91;5076602;28;20038;-93
2022/08/03 05:00:20;;;;;;;13.15;4.13;;;;;;;19.79;59.49;99354.72;5075266;28;20039;-94
2022/08/03 05:02:45;;;;;;;12.38;5.10;;;;;;;19.81;59.14;99320.28;5075713;28;20024;-94
2022/08/03 05:05:11;;;;;;;7.15;3.97;;;;;;;19.98;58.60;99353.56;5075334;28;20032;-94
2022/08/03 05:07:37;;;;;;;4.68;3.67;;;;;;;19.86;58.80;99353.91;5071307;28;20027;-93
2022/08/03 05:10:07;;;;;;;7.97;4.15;;;;;;;20.05;58.73;99358.44;5063661;28;20476;-93
2022/08/03 05:12:33;;;;;;;5.40;3.38;;;;;;;20.10;58.44;99358.06;5068894;28;20105;-93
2022/08/03 05:14:59;;;;;;;8.60;4.65;;;;;;;20.13;58.38;99351.56;5070267;28;20027;-94
2022/08/03 05:17:24;;;;;;;12.10;3.85;;;;;;;20.14;58.40;99335.34;5067582;28;20039;-93
2022/08/03 05:19:50;;;;;;;15.52;7.07;;;;;;;20.27;58.08;99347.94;5075096;28;20031;-93
2022/08/03 05:22:15;;;;;;;10.00;6.22;;;;;;;20.25;58.26;99353.19;5074662;28;20501;-93
2022/08/03 05:24:41;;;;;;;5.15;4.45;;;;;;;20.36;57.54;99356.06;5075086;28;20176;-93
2022/08/03 05:27:06;;;;;;;9.30;4.70;;;;;;;20.51;57.36;99334.13;5075924;28;20024;-92
2022/08/03 05:29:32;;;;;;;27.52;4.30;;;;;;;20.66;56.71;99351.97;5075646;28;20119;-93
2022/08/03 05:31:57;;;;;;;9.75;5.13;;;;;;;20.87;56.53;99368.22;5076140;28;20028;-92
2022/08/03 05:34:23;;;;;;;6.15;4.78;;;;;;;20.90;56.24;99369.44;5075819;28;20559;-93
2022/08/03 05:36:48;;;;;;;10.15;4.68;;;;;;;20.88;56.11;99361.34;5098425;28;20023;-93
2022/08/03 05:39:14;;;;;;;6.28;5.28;;;;;;;20.61;56.10;99347.53;5095553;28;20023;-92
2022/08/03 05:41:39;;;;;;;36.00;5.88;;;;;;;20.93;56.13;99368.63;5092253;28;20053;-92
2022/08/03 05:44:05;;;;;;;6.25;4.90;;;;;;;20.97;56.00;99362.94;5079320;28;20024;-92
2022/08/03 05:46:31;;;;;;;18.73;6.82;;;;;;;20.86;55.76;99338.19;5089751;28;20091;-92
2022/08/03 05:48:56;;;;;;;17.45;4.03;;;;;;;21.05;55.63;99358.88;5090855;28;20020;-91
2022/08/03 05:51:22;;;;;;;9.55;4.57;;;;;;;21.02;55.31;99363.34;5079623;28;20031;-91
2022/08/03 05:53:48;;;;;;;14.07;5.65;;;;;;;21.17;54.93;99374.66;5073945;28;20068;-91
2022/08/03 05:56:13;;;;;;;14.07;4.53;;;;;;;21.13;54.43;99343.41;5070185;28;20474;-92
2022/08/03 05:58:39;;;;;;;9.05;4.93;;;;;;;21.30;54.07;99352.28;5073559;28;20486;-93
2022/08/03 06:01:04;;;;;;;5.30;4.45;;;;;;;21.83;52.88;99387.47;5074775;28;20567;-93
2022/08/03 06:03:30;;;;;;;5.63;4.22;;;;;;;22.16;52.56;99382.41;5074940;28;20059;-92
2022/08/03 06:05:55;;;;;;;6.55;4.15;;;;;;;22.25;51.64;99375.41;5074735;28;20099;-93
2022/08/03 06:08:22;;;;;;;9.70;4.15;;;;;;;22.50;51.32;99378.13;5069550;28;20039;-92
2022/08/03 06:10:48;;;;;;;6.10;3.78;;;;;;;22.90;50.63;99374.09;5075655;28;20027;-92
2022/08/03 06:13:13;;;;;;;3.47;3.17;;;;;;;23.20;48.91;99373.38;5074616;28;20051;-94
2022/08/03 06:15:39;;;;;;;4.70;3.20;;;;;;;23.47;48.13;99369.88;5074264;28;20039;-92
2022/08/03 06:18:04;;;;;;;5.70;3.63;;;;;;;23.66;47.74;99371.25;5074076;28;20490;-92
2022/08/03 06:20:30;;;;;;;10.75;4.50;;;;;;;23.93;47.42;99349.66;5074438;28;20028;-93
2022/08/03 06:22:56;;;;;;;5.55;3.47;;;;;;;23.87;46.41;99348.53;5074879;28;20127;-93
2022/08/03 06:25:21;;;;;;;6.32;3.15;;;;;;;24.08;45.87;99364.59;5074140;28;20059;-92
2022/08/03 06:27:47;;;;;;;6.75;3.10;;;;;;;24.34;45.08;99385.84;5074871;28;20381;-94
2022/08/03 06:30:13;;;;;;;4.03;2.58;;;;;;;24.36;43.99;99362.53;5074579;28;20473;-92
2022/08/03 06:32:39;;;;;;;3.63;2.72;;;;;;;24.42;43.69;99377.94;5073809;28;20020;-93
2022/08/03 06:35:07;;;;;;;16.98;3.63;;;;;;;24.62;42.85;99388.66;5063417;28;20021;-92
2022/08/03 06:37:46;;;;;;;6.55;2.97;;;;;;;24.93;43.24;99382.84;5065617;28;20048;-94
2022/08/03 06:40:13;;;;;;;14.40;4.25;;;;;;;25.05;42.47;99376.47;5052565;28;20047;-93
2022/08/03 06:42:41;;;;;;;8.15;3.42;;;;;;;24.91;42.06;99337.50;5085360;28;20028;-94
2022/08/03 06:45:08;;;;;;;8.50;3.22;;;;;;;24.76;43.18;99336.94;5085291;28;20025;-95
2022/08/03 06:47:35;;;;;;;4.78;3.25;;;;;;;24.53;43.01;99335.72;5081266;28;20020;-95
2022/08/03 06:50:02;;;;;;;7.68;3.25;;;;;;;24.52;43.54;99347.56;5077097;28;20032;-94
2022/08/03 06:52:28;;;;;;;8.57;3.92;;;;;;;24.67;43.20;99368.16;5075403;28;20529;-93
2022/08/03 06:54:53;;;;;;;7.75;2.95;;;;;;;24.60;43.38;99343.34;5067408;28;20016;-93
2022/08/03 06:57:21;;;;;;;16.45;3.67;;;;;;;24.86;43.17;99338.03;5078929;28;20031;-95
2022/08/03 06:59:47;;;;;;;5.05;2.97;;;;;;;24.91;43.27;99342.44;5077996;28;20093;-93
2022/08/03 07:02:12;;;;;;;8.07;3.78;;;;;;;25.24;43.36;99369.16;5070531;28;20028;-93
2022/08/03 07:04:38;;;;;;;13.02;3.35;;;;;;;25.16;42.43;99358.31;5083069;28;20036;-95
2022/08/03 07:09:51;;;;;;;12.57;3.53;;;;;;;25.90;41.57;99377.25;5052526;28;20647;-72
2022/08/03 07:12:16;;;;;;;14.10;3.28;;;;;;;26.24;41.58;99381.03;5058355;28;20100;-72
2022/08/03 07:14:42;;;;;;;18.90;3.92;;;;;;;26.48;40.50;99383.72;5056882;28;20051;-71
2022/08/03 07:17:07;;;;;;;10.50;3.75;;;;;;;26.22;40.13;99380.66;5057087;28;20093;-72
2022/08/03 07:19:32;;;;;;;9.43;3.78;;;;;;;26.47;40.20;99382.94;5053949;28;20051;-71
2022/08/03 07:21:58;;;;;;;10.48;3.70;;;;;;;26.88;40.38;99386.47;5052375;28;20060;-77
2022/08/03 07:24:23;;;;;;;8.25;3.45;;;;;;;26.96;39.78;99375.59;5036461;28;20070;-72
2022/08/03 07:26:49;;;;;;;4.40;3.10;;;;;;;26.95;39.55;99379.72;5069441;28;20033;-73
2022/08/03 07:29:14;;;;;;;8.05;3.83;;;;;;;27.06;39.44;99379.44;5070350;28;20021;-74
2022/08/03 07:31:40;;;;;;;5.70;3.38;;;;;;;27.24;39.13;99384.69;5061248;28;20024;-78
2022/08/03 07:34:06;;;;;;;7.65;2.90;;;;;;;27.28;38.84;99376.78;5052136;28;20422;-74
2022/08/03 07:36:32;;;;;;;5.72;3.67;;;;;;;27.40;38.65;99386.69;5067210;28;20056;-74
2022/08/03 07:38:57;;;;;;;10.38;4.05;;;;;;;27.01;38.89;99394.34;5051456;28;20037;-75
2022/08/03 07:41:23;;;;;;;8.63;3.40;;;;;;;26.51;40.00;99387.78;5052097;28;20024;-75
2022/08/03 07:43:48;;;;;;;3.85;3.40;;;;;;;26.86;39.78;99393.88;5052640;28;20138;-74
2022/08/03 07:46:14;;;;;;;3.35;2.97;;;;;;;27.27;39.09;99392.41;5055658;28;20123;-75
2022/08/03 07:48:40;;;;;;;12.60;3.33;;;;;;;27.44;38.90;99381.66;5070843;28;20125;-75
2022/08/03 07:51:06;;;;;;;14.18;3.83;;;;;;;27.39;39.28;99390.00;5070926;28;20158;-74
2022/08/03 07:53:31;;;;;;;4.50;3.08;;;;;;;27.66;38.43;99391.75;5045870;28;20123;-75
2022/08/03 07:55:57;;;;;;;21.45;3.70;;;;;;;27.91;38.38;99401.69;5073857;28;20078;-73
2022/08/03 07:58:23;;;;;;;6.90;3.40;;;;;;;27.80;37.08;99382.72;5054986;28;20063;-73
2022/08/03 08:00:51;;;;;;;7.45;3.60;;;;;;;27.99;37.08;99391.56;5072381;28;20032;-75
2022/08/03 08:03:17;;;;;;;26.45;5.53;;;;;;;28.06;37.25;99391.38;5039311;28;20028;-76
2022/08/03 08:05:42;;;;;;;6.60;4.22;;;;;;;27.97;36.75;99388.34;5073183;28;20043;-75
2022/08/03 08:08:08;;;;;;;10.68;3.80;;;;;;;28.17;37.81;99396.78;5054345;28;20053;-74
2022/08/03 08:10:34;;;;;;;7.10;3.65;;;;;;;28.27;37.52;99394.88;5074190;28;20029;-75
2022/08/03 08:13:00;;;;;;;4.88;3.55;;;;;;;28.60;36.35;99386.00;5072343;28;20557;-76
2022/08/03 08:15:26;;;;;;;4.65;3.45;;;;;;;28.79;36.42;99391.94;5039860;28;20427;-76
2022/08/03 08:17:58;;;;;;;4.72;3.63;;;;;;;28.67;36.36;99394.38;5062436;28;20036;-76
2022/08/03 08:20:29;;;;;;;7.75;3.58;;;;;;;28.67;37.00;99399.34;5046701;28;20040;-76
2022/08/03 08:23:23;;;;;;;8.77;3.85;;;;;;;28.42;36.89;99403.84;5068402;28;20040;-76
2022/08/03 08:25:50;;;;;;;5.40;3.97;;;;;;;28.72;37.51;99395.88;5072386;28;20033;-76
2022/08/03 08:28:20;;;;;;;13.32;4.07;;;;;;;28.75;37.27;99392.06;5066698;28;20028;-75
2022/08/03 08:30:45;;;;;;;;;;;;;;;28.93;38.10;99399.31;5071441;28;20020;-75
2022/08/03 08:33:11;;;;;;;10.70;4.60;;;;;;;28.90;36.74;99392.41;5073323;28;20354;-76
2022/08/03 08:35:37;;;;;;;6.90;3.95;;;;;;;29.02;36.32;99393.63;5055147;28;20029;-74
2022/08/03 08:38:02;;;;;;;5.78;3.53;;;;;;;28.93;35.75;99391.47;5054296;28;20025;-72
2022/08/03 08:40:28;;;;;;;21.88;6.22;;;;;;;29.20;36.53;99392.22;5070046;28;20032;-76
2022/08/03 08:42:54;;;;;;;17.73;5.03;;;;;;;29.23;36.21;99394.97;5055401;28;20056;-74
2022/08/03 08:45:20;;;;;;;6.97;3.65;;;;;;;29.30;36.33;99405.41;5072125;28;20422;-77
2022/08/03 08:47:47;;;;;;;15.85;4.80;;;;;;;29.41;36.58;99411.59;5072674;28;20032;-76
2022/08/03 08:50:20;;;;;;;6.90;4.05;;;;;;;29.69;36.65;99406.06;5051973;28;20054;-76
2022/08/03 08:52:48;;;;;;;8.40;3.92;;;;;;;29.74;34.96;99406.72;5071450;28;20039;-76
2022/08/03 08:55:19;;;;;;;7.22;3.90;;;;;;;29.63;35.39;99399.31;5054646;28;20055;-75
2022/08/03 08:57:54;;;;;;;7.43;4.35;;;;;;;29.65;35.76;99402.53;5055078;28;20490;-77
2022/08/03 09:00:19;;;;;;;7.65;3.83;;;;;;;29.59;35.70;99386.31;5053364;28;20024;-77
2022/08/03 09:02:45;;;;;;;7.80;4.03;;;;;;;29.79;35.45;99400.38;5053921;28;20563;-77
2022/08/03 09:05:12;;;;;;;4.13;3.13;;;;;;;29.82;35.81;99394.47;5047301;28;20032;-77
2022/08/03 09:07:42;;;;;;;9.23;4.00;;;;;;;29.69;35.58;99391.66;5054208;28;20506;-76
2022/08/03 09:10:08;;;;;;;;;;;;;;;29.90;35.31;99391.28;5073187;28;20056;-77
2022/08/03 09:12:46;;;;;;;7.40;3.83;;;;;;;30.04;35.82;99390.75;5053777;28;19954;-77
2022/08/03 09:15:27;;;;;;;11.85;3.50;;;;;;;30.21;35.10;99396.31;5054117;28;20025;-77
2022/08/03 09:17:55;;;;;;;6.90;3.60;;;;;;;30.16;35.09;99386.19;5072620;28;20068;-77
2022/08/03 09:20:22;;;;;;;5.40;3.45;;;;;;;30.21;34.71;99393.44;5070635;28;20032;-77
2022/08/03 09:23:09;;;;;;;9.13;3.58;;;;;;;30.10;35.28;99383.13;5072299;28;20089;-77
2022/08/03 09:25:38;;;;;;;7.93;3.63;;;;;;;29.77;35.18;99377.78;5068055;28;20029;-80
2022/08/03 09:28:05;;;;;;;5.28;3.35;;;;;;;29.86;35.59;99382.78;5059381;28;20070;-76
2022/08/03 09:30:31;;;;;;;6.82;3.88;;;;;;;30.16;34.99;99379.59;5071047;28;20032;-76
2022/08/03 09:33:05;;;;;;;4.15;3.55;;;;;;;30.54;34.34;99379.28;5069982;28;20020;-76
2022/08/03 09:35:30;;;;;;;8.02;3.22;;;;;;;30.81;33.20;99374.09;5064637;28;20387;-75
2022/08/03 09:38:08;;;;;;;8.40;3.80;;;;;;;30.98;33.05;99377.50;5050351;28;20024;-74
2022/08/03 09:40:35;;;;;;;8.43;3.65;;;;;;;31.07;33.03;99383.28;5054223;28;20031;-75
2022/08/03 09:43:00;;;;;;;7.57;3.97;;;;;;;30.41;32.87;99364.19;5071195;28;20462;-75
2022/08/03 09:45:26;;;;;;;13.43;3.88;;;;;;;30.77;33.73;99380.00;5068067;28;20161;-75
2022/08/03 09:47:52;;;;;;;10.68;3.42;;;;;;;31.08;33.15;99379.09;5061008;28;20480;-73
2022/08/03 09:50:17;;;;;;;5.65;3.10;;;;;;;31.26;32.98;99368.06;5047573;28;20028;-73
2022/08/03 09:52:46;;;;;;;8.50;3.33;;;;;;;31.56;32.66;99377.84;5064893;28;20035;-73
2022/08/03 09:55:13;;;;;;;4.13;2.83;;;;;;;31.62;31.56;99373.00;5062811;28;20513;-73
2022/08/03 09:57:44;;;;;;;41.45;29.83;;;;;;;31.62;31.68;99366.44;5063321;28;20063;-74
2022/08/03 10:00:12;;;;;;;9.85;4.97;;;;;;;30.45;32.64;99361.94;5048419;28;20030;-73
2022/08/03 10:02:39;;;;;;;24.73;17.75;;;;;;;31.21;33.22;99370.28;5066894;28;20032;-74
2022/08/03 10:05:07;;;;;;;14.27;6.53;;;;;;;31.57;32.43;99361.28;5069279;28;20020;-74
2022/08/03 10:07:47;;;;;;;9.10;5.07;;;;;;;31.61;31.93;99351.19;5045118;28;20024;-74
2022/08/03 10:10:14;;;;;;;33.15;26.58;;;;;;;31.91;31.80;99350.66;5059651;28;20028;-74
2022/08/03 10:12:41;;;;;;;7.05;5.30;;;;;;;31.72;31.42;99349.88;5048869;28;20064;-73
2022/08/03 10:15:07;;;;;;;11.73;6.75;;;;;;;31.73;31.88;99343.59;5049945;28;20028;-73
2022/08/03 10:17:33;;;;;;;6.50;5.95;;;;;;;31.61;31.63;99342.50;5068451;28;20050;-74
2022/08/03 10:19:59;;;;;;;9.88;8.65;;;;;;;31.44;32.40;99347.03;5069554;28;20038;-73
2022/08/03 10:22:33;;;;;;;11.65;9.60;;;;;;;31.72;32.29;99332.53;5069417;28;20099;-76
2022/08/03 10:25:02;;;;;;;5.85;4.35;;;;;;;31.86;32.48;99340.53;5070059;28;20024;-76
2022/08/03 10:27:33;;;;;;;;;;;;;;;31.81;32.23;99349.06;5051156;28;20025;-80
2022/08/03 10:30:03;;;;;;;8.20;4.97;;;;;;;31.69;31.20;99333.50;5051961;28;19909;-83
2022/08/03 10:32:53;;;;;;;3.67;3.38;;;;;;;31.12;30.94;99341.38;5069393;28;20074;-76
2022/08/03 10:35:20;;;;;;;4.80;3.55;;;;;;;31.32;31.90;99340.94;5067023;28;20009;-75
2022/08/03 10:37:55;;;;;;;14.95;4.72;;;;;;;31.17;31.69;99337.06;5051246;28;20353;-73
2022/08/03 10:40:22;;;;;;;4.93;4.45;;;;;;;30.70;32.73;99339.13;5067742;28;20025;-73
2022/08/03 10:42:53;;;;;;;7.22;4.90;;;;;;;30.89;33.18;99345.72;5069638;28;20092;-76
2022/08/03 10:45:21;;;;;;;6.30;5.47;;;;;;;31.47;32.86;99338.19;5056101;28;20021;-73
2022/08/03 10:47:48;;;;;;;5.00;4.30;;;;;;;31.59;32.81;99329.81;5069267;28;20028;-73
2022/08/03 10:50:14;;;;;;;9.45;4.85;;;;;;;31.55;31.83;99332.88;5068184;28;20403;-73
2022/08/03 10:52:57;;;;;;;6.82;3.95;;;;;;;31.97;31.84;99327.66;5069210;28;20356;-73
2022/08/03 10:58:51;;;;;;;9.23;3.80;;;;;;;32.20;31.31;99323.22;5069692;28;20112;-73
2022/08/03 11:01:17;;;;;;;;;;;;;;;32.15;32.37;99326.78;5050256;28;20133;-73
2022/08/03 11:03:52;;;;;;;13.73;12.32;;;;;;;32.12;31.03;99319.88;5069152;28;19973;-76
2022/08/03 11:06:25;;;;;;;16.92;7.00;;;;;;;32.32;30.51;99310.63;5051036;28;20127;-75
2022/08/03 11:09:08;;;;;;;7.93;4.25;;;;;;;32.31;30.86;99309.00;5068578;28;20191;-74
2022/08/03 11:11:34;;;;;;;4.82;3.85;;;;;;;32.25;30.58;99302.31;5069204;28;20020;-78
2022/08/03 11:14:06;;;;;;;6.95;3.65;;;;;;;31.50;31.08;99301.75;5046264;28;20029;-76
2022/08/03 11:16:37;;;;;;;4.82;4.32;;;;;;;31.90;30.23;99299.91;5068686;28;20040;-78
2022/08/03 11:19:04;;;;;;;3.92;3.58;;;;;;;32.10;31.28;99298.50;5053589;28;20542;-75
2022/08/03 11:21:48;;;;;;;3.97;3.55;;;;;;;31.87;30.12;99301.66;5052242;28;20399;-75
2022/08/03 11:24:35;;;;;;;5.82;3.78;;;;;;;31.90;30.62;99297.00;5074488;28;20128;-73
2022/08/03 11:27:13;;;;;;;10.27;3.22;;;;;;;32.59;30.85;99291.53;5069042;28;20517;-74
2022/08/03 11:30:09;;;;;;;6.15;3.92;;;;;;;32.65;30.38;99287.94;5070152;28;20419;-74
2022/08/03 11:32:43;;;;;;;9.60;6.53;;;;;;;32.75;30.44;99293.16;5053509;28;20034;-74
2022/08/03 11:35:21;;;;;;;6.85;4.38;;;;;;;32.77;30.02;99284.00;5071987;28;20498;-75
2022/08/03 11:37:52;;;;;;;8.52;6.95;;;;;;;33.17;28.90;99287.72;5054581;28;20036;-74
2022/08/03 11:40:40;;;;;;;4.93;3.42;;;;;;;33.32;28.55;99290.63;5043717;28;20029;-73
2022/08/03 11:43:09;;;;;;;4.00;3.70;;;;;;;32.97;28.04;99285.47;5063237;28;20021;-73
2022/08/03 11:45:36;;;;;;;6.50;3.13;;;;;;;33.09;27.26;99283.59;5069911;28;20028;-73
2022/08/03 11:48:14;;;;;;;3.85;3.53;;;;;;;32.99;28.36;99285.78;5070343;28;20043;-73
2022/08/03 11:50:44;;;;;;;4.65;3.28;;;;;;;32.75;27.91;99272.91;5062915;28;20074;-73
2022/08/03 11:53:14;;;;;;;3.83;2.60;;;;;;;32.39;29.59;99288.44;5066347;28;20021;-73
2022/08/03 11:55:42;;;;;;;6.10;3.15;;;;;;;32.68;28.65;99279.09;5051837;28;20037;-73
2022/08/03 11:58:07;;;;;;;6.55;3.03;;;;;;;32.58;29.40;99281.25;5038714;28;20025;-73